This is the latest recevied weather packets stored in our database for station/object K5IDL. If no packets are shown the sender has not sent any weather packets the latest 10 day(s).
| Time | Temp. | Humidity | Pressure | Rain* | Wind** | Luminosity | Snow |
|---|---|---|---|---|---|---|---|
| 1777739769 | 24.44° C | 34% | 1023.3 hPa | 0 mm | - | 648 W/m² | - |
| 1777739466 | 24.44° C | 37% | 1023.2 hPa | 0 mm | - | 640 W/m² | - |
| 1777739163 | 25° C | 34% | 1023.3 hPa | 0 mm | - | 630 W/m² | - |
| 1777738860 | 23.89° C | 35% | 1023.3 hPa | 0 mm | - | 622 W/m² | - |
| 1777738556 | 23.89° C | 34% | 1023.2 hPa | 0 mm | - | 611 W/m² | - |
| 1777738254 | 22.22° C | 38% | 1023.4 hPa | 0 mm | - | 598 W/m² | - |
| 1777737952 | 24.44° C | 33% | 1023.1 hPa | 0 mm | - | 588 W/m² | - |
| 1777737650 | 25° C | 35% | 1023.2 hPa | 0 mm | - | 576 W/m² | - |
| 1777737348 | 23.33° C | 36% | 1023.3 hPa | 0 mm | - | 563 W/m² | - |
| 1777737045 | 23.89° C | 37% | 1023.1 hPa | 0 mm | - | 551 W/m² | - |
| 1777736741 | 23.89° C | 38% | 1023.1 hPa | 0 mm | - | 533 W/m² | - |
| 1777736118 | 22.78° C | 39% | 1023 hPa | 0 mm | - | 515 W/m² | - |
| 1777735804 | 23.33° C | 39% | 1023 hPa | 0 mm | - | 502 W/m² | - |
| 1777735501 | 23.33° C | 38% | 1023 hPa | 0 mm | - | 487 W/m² | - |
| 1777735199 | 24.44° C | 38% | 1023.1 hPa | 0 mm | - | 474 W/m² | - |
| 1777734896 | 22.78° C | 39% | 1022.8 hPa | 0 mm | - | 458 W/m² | - |
| 1777734593 | 21.11° C | 43% | 1023 hPa | 0 mm | - | 445 W/m² | - |
| 1777734290 | 22.78° C | 39% | 1022.5 hPa | 0 mm | - | 430 W/m² | - |
| 1777733986 | 23.33° C | 38% | 1023 hPa | 0 mm | - | 414 W/m² | - |
| 1777733683 | 21.67° C | 40% | 1023.1 hPa | 0 mm | - | 399 W/m² | - |
| 1777733379 | 22.22° C | 40% | 1022.8 hPa | 0 mm | - | 386 W/m² | - |
| 1777733076 | 22.78° C | 38% | 1023 hPa | 0 mm | - | 369 W/m² | - |
| 1777732772 | 23.33° C | 39% | 1022.5 hPa | 0 mm | - | 352 W/m² | - |
| 1777732470 | 21.67° C | 44% | 1022.7 hPa | 0 mm | - | 336 W/m² | - |
| 1777732167 | 22.78° C | 41% | 1022.7 hPa | 0 mm | - | 321 W/m² | - |
* Rain latest hour (hover to see other rain measurements)
** Current wind speed in m/s (hover to see current wind gust speed)